createdAt,value
2018-06-15T00:01:12.561Z,20.57
2018-06-15T00:03:41.644Z,20.10
2018-06-15T00:06:10.723Z,18.33
2018-06-15T00:08:39.833Z,20.40
2018-06-15T00:11:08.935Z,19.03
2018-06-15T00:13:38.022Z,16.50
2018-06-15T00:16:07.091Z,19.53
2018-06-15T00:18:36.180Z,15.63
2018-06-15T00:21:05.266Z,16.50
2018-06-15T00:23:34.357Z,15.77
2018-06-15T00:26:03.463Z,15.67
2018-06-15T00:28:32.551Z,15.80
2018-06-15T00:31:01.834Z,17.03
2018-06-15T00:33:30.954Z,16.50
2018-06-15T00:36:00.032Z,16.60
2018-06-15T00:38:29.135Z,17.37
2018-06-15T00:40:58.218Z,15.77
2018-06-15T00:43:27.287Z,16.70
2018-06-15T00:45:56.352Z,16.07
2018-06-15T00:48:25.599Z,16.87
2018-06-15T00:50:54.682Z,16.97
2018-06-15T00:53:23.761Z,16.77
2018-06-15T00:55:52.821Z,16.90
2018-06-15T00:58:21.901Z,17.23
2018-06-15T01:00:51.080Z,17.63
2018-06-15T01:03:20.213Z,17.93
2018-06-15T01:05:49.311Z,17.00
2018-06-15T01:08:18.382Z,17.03
2018-06-15T01:10:47.478Z,18.50
2018-06-15T01:13:16.563Z,17.80
2018-06-15T01:15:45.627Z,16.73
2018-06-15T01:18:14.685Z,18.80
2018-06-15T01:20:43.810Z,17.80
2018-06-15T01:23:12.943Z,18.90
2018-06-15T01:25:42.040Z,18.33
2018-06-15T01:28:11.107Z,18.73
2018-06-15T01:30:39.951Z,17.90
2018-06-15T01:33:08.883Z,18.73
2018-06-15T01:35:37.967Z,18.30
2018-06-15T01:38:07.024Z,18.97
2018-06-15T01:40:36.091Z,18.37
2018-06-15T01:43:05.190Z,16.90
2018-06-15T01:45:34.224Z,19.30
2018-06-15T01:48:03.294Z,17.60
2018-06-15T01:50:32.352Z,17.23
2018-06-15T01:53:01.414Z,19.93
2018-06-15T01:55:30.547Z,18.63
2018-06-15T01:57:59.663Z,17.67
2018-06-15T02:00:28.763Z,17.97
2018-06-15T02:02:57.852Z,17.77
2018-06-15T02:05:26.971Z,16.50
2018-06-15T02:07:56.052Z,17.00
2018-06-15T02:10:25.132Z,16.97
2018-06-15T02:12:56.328Z,17.63
2018-06-15T02:15:25.419Z,18.60
2018-06-15T02:17:54.491Z,20.87
2018-06-15T02:20:23.599Z,19.90
2018-06-15T02:22:52.666Z,22.63
2018-06-15T02:25:21.746Z,23.60
2018-06-15T02:27:50.814Z,24.07
2018-06-15T02:30:19.907Z,25.03
2018-06-15T02:32:48.970Z,25.23
2018-06-15T02:35:18.093Z,30.03
2018-06-15T02:37:47.175Z,29.23
2018-06-15T02:40:16.298Z,30.00
2018-06-15T02:42:45.403Z,32.17
2018-06-15T02:45:14.518Z,31.70
2018-06-15T02:47:43.569Z,30.40
2018-06-15T02:50:12.655Z,34.80
2018-06-15T02:52:41.741Z,32.13
2018-06-15T02:55:13.284Z,31.40
2018-06-15T02:57:42.407Z,31.70
2018-06-15T03:00:11.447Z,33.23
2018-06-15T03:02:40.539Z,32.57
2018-06-15T03:05:09.624Z,34.70
2018-06-15T03:07:38.419Z,32.37
2018-06-15T03:10:07.365Z,32.30
2018-06-15T03:12:36.476Z,33.77
2018-06-15T03:15:05.899Z,33.63
2018-06-15T03:17:35.091Z,36.00
2018-06-15T03:20:04.405Z,32.63
2018-06-15T03:22:33.477Z,33.47
2018-06-15T03:25:02.611Z,33.73
2018-06-15T03:27:32.072Z,36.77
2018-06-15T03:30:01.133Z,36.07
2018-06-15T03:32:30.223Z,36.27
2018-06-15T03:34:59.510Z,35.30
2018-06-15T03:37:28.595Z,36.77
2018-06-15T03:39:57.698Z,39.03
2018-06-15T03:42:26.784Z,41.23
2018-06-15T03:44:55.867Z,38.30
2018-06-15T03:47:24.970Z,39.03
2018-06-15T03:49:54.020Z,37.17
2018-06-15T03:52:23.067Z,36.50
2018-06-15T03:54:52.158Z,36.00
2018-06-15T03:57:21.208Z,33.60
2018-06-15T03:59:50.299Z,30.60
2018-06-15T04:02:19.367Z,34.17
2018-06-15T04:04:48.440Z,32.30
2018-06-15T04:07:17.524Z,32.87
2018-06-15T04:09:46.578Z,32.50
2018-06-15T04:12:15.673Z,30.67
2018-06-15T04:14:44.746Z,35.20
2018-06-15T04:17:13.827Z,33.40
2018-06-15T04:19:42.946Z,30.43
2018-06-15T04:22:12.027Z,30.30
2018-06-15T04:24:41.071Z,30.30
2018-06-15T04:27:10.180Z,31.27
2018-06-15T04:29:39.022Z,31.23
2018-06-15T04:32:08.164Z,29.13
2018-06-15T04:34:37.243Z,32.97
2018-06-15T04:37:06.335Z,30.97
2018-06-15T04:39:35.460Z,29.63
2018-06-15T04:42:04.550Z,30.43
2018-06-15T04:44:33.955Z,32.77
2018-06-15T04:47:03.052Z,30.10
2018-06-15T04:49:32.119Z,29.80
2018-06-15T04:52:01.160Z,31.47
2018-06-15T04:54:30.119Z,32.17
2018-06-15T04:56:59.188Z,36.13
2018-06-15T04:59:28.595Z,31.90
2018-06-15T05:01:57.663Z,30.70
2018-06-15T05:04:26.726Z,31.33
2018-06-15T05:06:55.792Z,31.77
2018-06-15T05:09:24.825Z,30.00
2018-06-15T05:11:53.936Z,29.30
2018-06-15T05:14:23.035Z,29.57
2018-06-15T05:16:52.103Z,31.43
2018-06-15T05:19:21.252Z,30.60
2018-06-15T05:21:50.343Z,28.43
2018-06-15T05:24:19.419Z,31.47
2018-06-15T05:26:48.544Z,30.93
2018-06-15T05:29:17.623Z,28.93
2018-06-15T05:31:46.675Z,32.97
2018-06-15T05:34:15.743Z,26.60
2018-06-15T05:36:44.566Z,28.73
2018-06-15T05:39:13.548Z,24.73
2018-06-15T05:41:42.700Z,26.40
2018-06-15T05:44:11.815Z,28.20
2018-06-15T05:46:40.875Z,27.30
2018-06-15T05:49:09.966Z,27.73
2018-06-15T05:51:39.023Z,26.20
2018-06-15T05:54:08.104Z,28.17
2018-06-15T05:56:37.406Z,27.80
2018-06-15T05:59:06.487Z,29.50
2018-06-15T06:01:35.574Z,28.20
2018-06-15T06:04:04.844Z,28.13
2018-06-15T06:06:33.842Z,28.30
2018-06-15T06:09:03.023Z,26.37
2018-06-15T06:11:32.184Z,29.50
2018-06-15T06:14:01.272Z,27.00
2018-06-15T06:16:30.114Z,31.47
2018-06-15T06:18:59.099Z,27.87
2018-06-15T06:21:28.222Z,29.63
2018-06-15T06:23:57.554Z,29.10
2018-06-15T06:26:26.721Z,29.30
2018-06-15T06:28:55.815Z,31.83
2018-06-15T06:31:24.863Z,29.40
2018-06-15T06:33:53.963Z,29.10
2018-06-15T06:36:23.057Z,31.40
2018-06-15T06:38:52.155Z,27.50
2018-06-15T06:41:21.649Z,29.23
2018-06-15T06:43:50.775Z,29.67
2018-06-15T06:46:19.869Z,29.60
2018-06-15T06:48:48.983Z,29.20
2018-06-15T06:51:18.059Z,29.53
2018-06-15T06:53:47.171Z,27.60
2018-06-15T06:56:16.263Z,31.57
2018-06-15T06:58:45.347Z,28.23
2018-06-15T07:01:14.461Z,30.57
2018-06-15T07:03:43.508Z,29.60
2018-06-15T07:06:12.641Z,30.50
2018-06-15T07:08:41.909Z,32.07
2018-06-15T07:11:10.992Z,29.53
2018-06-15T07:13:40.191Z,28.70
2018-06-15T07:16:09.291Z,29.13
2018-06-15T07:18:38.382Z,30.10
2018-06-15T07:21:07.494Z,30.90
2018-06-15T07:23:36.628Z,28.80
2018-06-15T07:26:05.717Z,27.13
2018-06-15T07:28:34.795Z,27.13
2018-06-15T07:31:03.939Z,28.93
2018-06-15T07:33:33.073Z,27.43
2018-06-15T07:36:02.124Z,31.13
2018-06-15T07:38:31.200Z,27.67
2018-06-15T07:41:00.415Z,30.77
2018-06-15T07:43:29.487Z,29.17
2018-06-15T07:45:58.635Z,31.00
2018-06-15T07:48:27.718Z,29.57
2018-06-15T07:50:56.831Z,29.33
2018-06-15T07:53:25.935Z,27.77
2018-06-15T07:55:54.984Z,28.07
2018-06-15T07:58:24.063Z,28.93
2018-06-15T08:00:53.151Z,28.97
2018-06-15T08:03:22.244Z,27.70
2018-06-15T08:05:51.337Z,28.57
2018-06-15T08:08:20.468Z,27.07
2018-06-15T08:10:49.564Z,29.07
2018-06-15T08:13:18.658Z,29.83
2018-06-15T08:15:47.738Z,27.13
2018-06-15T08:18:16.770Z,27.73
2018-06-15T08:20:45.851Z,24.13
2018-06-15T08:23:14.928Z,26.73
2018-06-15T08:25:44.011Z,18.43
2018-06-15T08:28:13.084Z,22.73
2018-06-15T08:30:42.215Z,26.50
2018-06-15T08:33:11.286Z,26.03
2018-06-15T08:35:40.372Z,23.90
2018-06-15T08:38:09.443Z,23.30
2018-06-15T08:40:38.563Z,22.33
2018-06-15T08:43:07.758Z,22.77
2018-06-15T08:45:36.844Z,21.60
2018-06-15T08:48:05.920Z,19.93
2018-06-15T08:50:35.025Z,17.93
2018-06-15T08:53:04.195Z,16.10
2018-06-15T08:55:33.370Z,22.60
2018-06-15T08:58:02.445Z,22.43
2018-06-15T09:00:31.515Z,25.07
2018-06-15T09:03:00.644Z,23.57
2018-06-15T09:05:29.711Z,24.20
2018-06-15T09:07:58.893Z,23.53
2018-06-15T09:10:28.084Z,24.20
2018-06-15T09:12:57.149Z,21.43
2018-06-15T09:15:26.279Z,20.37
2018-06-15T09:17:55.382Z,24.47
2018-06-15T09:20:24.474Z,23.73
2018-06-15T09:22:53.558Z,26.27
2018-06-15T09:25:22.648Z,25.07
2018-06-15T09:27:51.721Z,23.70
2018-06-15T09:30:20.798Z,22.30
2018-06-15T09:32:49.895Z,21.33
2018-06-15T09:35:19.009Z,21.60
2018-06-15T09:37:48.201Z,21.33
2018-06-15T09:40:17.503Z,24.77
2018-06-15T09:42:46.590Z,25.00
2018-06-15T09:45:15.659Z,24.20
2018-06-15T09:47:44.816Z,23.00
2018-06-15T09:50:13.959Z,23.93
2018-06-15T09:52:43.051Z,31.00
2018-06-15T09:55:12.176Z,37.17
2018-06-15T09:57:41.343Z,36.03
2018-06-15T10:00:10.419Z,25.93
2018-06-15T10:02:39.570Z,20.87
2018-06-15T10:05:08.663Z,22.30
2018-06-15T10:07:37.769Z,21.40
2018-06-15T10:10:06.868Z,22.60
2018-06-15T10:12:35.963Z,19.97
2018-06-15T10:15:05.055Z,31.43
2018-06-15T10:17:34.103Z,20.63
2018-06-15T10:20:03.083Z,18.83
2018-06-15T10:22:32.206Z,20.50
2018-06-15T10:25:01.304Z,19.97
2018-06-15T10:27:30.383Z,21.83
2018-06-15T10:29:59.467Z,22.63
2018-06-15T10:32:28.627Z,22.00
2018-06-15T10:34:57.787Z,17.60
2018-06-15T10:37:26.904Z,19.27
2018-06-15T10:39:56.094Z,19.30
2018-06-15T10:42:25.188Z,20.47
2018-06-15T10:44:54.264Z,15.03
2018-06-15T10:47:23.390Z,18.63
2018-06-15T10:49:52.671Z,17.47
2018-06-15T10:52:21.833Z,18.50
2018-06-15T10:54:50.936Z,19.80
2018-06-15T10:57:20.004Z,22.80
2018-06-15T10:59:49.106Z,20.27
2018-06-15T11:02:18.276Z,17.77
2018-06-15T11:04:47.294Z,19.77
2018-06-15T11:07:17.339Z,18.00
2018-06-15T11:09:46.455Z,23.97
2018-06-15T11:12:15.587Z,24.27
2018-06-15T11:14:44.699Z,19.43
2018-06-15T11:17:13.840Z,19.60
2018-06-15T11:19:42.976Z,17.77
2018-06-15T11:22:12.071Z,21.27
2018-06-15T11:24:41.162Z,17.13
2018-06-15T11:27:10.280Z,13.93
2018-06-15T11:29:39.383Z,16.17
2018-06-15T11:32:08.531Z,16.53
2018-06-15T11:34:37.639Z,13.93
2018-06-15T11:37:06.790Z,19.13
2018-06-15T11:39:35.860Z,20.70
2018-06-15T11:42:05.012Z,20.90
2018-06-15T11:44:34.097Z,26.90
2018-06-15T11:47:03.236Z,24.77
2018-06-15T11:49:32.102Z,19.50
2018-06-15T11:52:01.059Z,21.73
2018-06-15T11:54:30.175Z,23.00
2018-06-15T11:56:59.267Z,20.77
2018-06-15T11:59:28.331Z,18.37
2018-06-15T12:01:57.434Z,24.97
2018-06-15T12:04:26.543Z,29.00
2018-06-15T12:06:55.627Z,20.43
2018-06-15T12:09:24.707Z,18.63
2018-06-15T12:11:53.823Z,18.17
2018-06-15T12:14:22.935Z,29.00
2018-06-15T12:16:51.795Z,18.40
2018-06-15T12:19:20.744Z,21.40
2018-06-15T12:21:49.869Z,15.63
2018-06-15T12:24:18.980Z,16.27
2018-06-15T12:26:48.047Z,26.40
2018-06-15T12:29:17.149Z,14.90
2018-06-15T12:31:46.223Z,18.30
2018-06-15T12:34:15.385Z,13.70
2018-06-15T12:36:44.459Z,13.70
2018-06-15T12:39:13.606Z,10.87
2018-06-15T12:41:42.767Z,13.40
2018-06-15T12:44:11.845Z,16.13
2018-06-15T12:46:40.926Z,15.83
2018-06-15T12:49:10.128Z,14.97
2018-06-15T12:51:39.291Z,20.77
2018-06-15T12:54:08.415Z,16.53
2018-06-15T12:56:37.488Z,16.57
2018-06-15T12:59:06.596Z,16.83
2018-06-15T13:01:35.686Z,14.90
2018-06-15T13:04:04.821Z,14.20
2018-06-15T13:06:34.085Z,16.60
2018-06-15T13:09:03.241Z,13.30
2018-06-15T13:11:32.345Z,12.00
2018-06-15T13:14:01.431Z,11.87
2018-06-15T13:16:30.562Z,11.53
2018-06-15T13:18:59.651Z,12.77
2018-06-15T13:21:28.771Z,15.53
2018-06-15T13:23:58.567Z,12.00
2018-06-15T13:26:27.715Z,12.77
2018-06-15T13:28:56.904Z,10.63
2018-06-15T13:31:26.101Z,12.30
2018-06-15T13:33:55.285Z,12.13
2018-06-15T13:36:24.771Z,13.77
2018-06-15T13:38:53.935Z,11.43
2018-06-15T13:41:23.095Z,13.30
2018-06-15T13:43:52.239Z,12.53
2018-06-15T13:46:21.363Z,11.40
2018-06-15T13:48:50.451Z,11.63
2018-06-15T13:51:19.525Z,9.70
2018-06-15T13:53:48.637Z,9.20
2018-06-15T13:56:17.772Z,11.03
2018-06-15T13:58:46.991Z,10.90
2018-06-15T14:01:16.116Z,10.70
2018-06-15T14:03:45.201Z,11.13
2018-06-15T14:06:14.347Z,13.60
2018-06-15T14:08:43.505Z,15.23
2018-06-15T14:11:12.634Z,12.60
2018-06-15T14:13:41.698Z,14.23
2018-06-15T14:16:10.879Z,11.57
2018-06-15T14:18:40.000Z,12.07
2018-06-15T14:21:09.068Z,10.17
2018-06-15T14:23:38.211Z,12.20
2018-06-15T14:26:07.290Z,10.77
2018-06-15T14:28:36.358Z,12.07
2018-06-15T14:31:05.460Z,12.50
2018-06-15T14:33:34.556Z,10.90
2018-06-15T14:36:03.828Z,11.90
2018-06-15T14:38:32.970Z,11.10
2018-06-15T14:41:02.051Z,12.57
2018-06-15T14:43:31.103Z,12.90
2018-06-15T14:46:00.271Z,12.33
2018-06-15T14:48:29.363Z,10.77
2018-06-15T14:50:58.467Z,9.40
2018-06-15T14:53:27.543Z,11.83
2018-06-15T14:55:56.639Z,11.50
2018-06-15T14:58:25.731Z,11.73
2018-06-15T15:00:54.837Z,10.60
2018-06-15T15:03:23.903Z,10.47
2018-06-15T15:05:52.697Z,12.60
2018-06-15T15:08:21.672Z,14.27
2018-06-15T15:10:50.776Z,16.43
2018-06-15T15:13:19.936Z,12.10
2018-06-15T15:15:49.022Z,11.37
2018-06-15T15:18:18.142Z,12.13
2018-06-15T15:20:47.192Z,10.60
2018-06-15T15:23:16.491Z,13.70
2018-06-15T15:25:46.208Z,13.07
2018-06-15T15:28:15.293Z,12.20
2018-06-15T15:30:44.387Z,11.30
2018-06-15T15:33:13.435Z,19.80
2018-06-15T15:35:42.582Z,12.20
2018-06-15T15:38:11.678Z,16.27
2018-06-15T15:40:40.815Z,15.13
2018-06-15T15:43:09.941Z,12.00
2018-06-15T15:45:39.310Z,10.90
2018-06-15T15:48:08.403Z,12.00
2018-06-15T15:50:37.508Z,16.03
2018-06-15T15:53:06.566Z,15.40
2018-06-15T15:55:35.690Z,11.40
2018-06-15T15:58:04.798Z,12.77
2018-06-15T16:00:33.874Z,15.53
2018-06-15T16:03:02.931Z,10.37
2018-06-15T16:05:32.042Z,11.93
2018-06-15T16:08:01.114Z,9.53
2018-06-15T16:10:30.180Z,13.57
2018-06-15T16:12:59.279Z,11.87
2018-06-15T16:15:28.355Z,9.50
2018-06-15T16:17:57.428Z,13.73
2018-06-15T16:20:26.502Z,15.07
2018-06-15T16:22:55.603Z,11.40
2018-06-15T16:25:24.667Z,15.17
2018-06-15T16:27:53.740Z,12.87
2018-06-15T16:30:22.807Z,14.47
2018-06-15T16:32:51.908Z,12.13
2018-06-15T16:35:20.984Z,10.70
2018-06-15T16:37:50.051Z,10.87
2018-06-15T16:40:19.191Z,18.00
2018-06-15T16:42:48.269Z,19.83
2018-06-15T16:45:17.347Z,12.53
2018-06-15T16:47:46.486Z,12.67
2018-06-15T16:50:15.587Z,10.17
2018-06-15T16:52:44.672Z,15.43
2018-06-15T16:55:13.775Z,18.00
2018-06-15T16:57:42.843Z,21.23
2018-06-15T17:00:11.914Z,14.47
2018-06-15T17:02:40.991Z,18.43
2018-06-15T17:05:10.099Z,13.77
2018-06-15T17:07:39.191Z,12.30
2018-06-15T17:10:08.238Z,13.07
2018-06-15T17:12:37.334Z,16.10
2018-06-15T17:15:06.410Z,11.53
2018-06-15T17:17:35.496Z,11.20
2018-06-15T17:20:04.650Z,11.07
2018-06-15T17:22:33.720Z,9.67
2018-06-15T17:25:02.825Z,10.80
2018-06-15T17:27:32.100Z,11.00
2018-06-15T17:30:01.364Z,9.73
2018-06-15T17:32:30.598Z,9.23
2018-06-15T17:34:59.988Z,14.17
2018-06-15T17:37:29.088Z,7.13
2018-06-15T17:39:58.189Z,6.30
2018-06-15T17:42:27.335Z,13.17
2018-06-15T17:44:56.519Z,7.23
2018-06-15T17:47:25.603Z,7.07
2018-06-15T17:49:54.689Z,8.30
2018-06-15T17:52:23.768Z,6.07
2018-06-15T17:54:53.100Z,8.17
2018-06-15T17:57:22.187Z,8.33
2018-06-15T17:59:51.374Z,9.20
2018-06-15T18:02:20.376Z,6.93
2018-06-15T18:04:49.463Z,10.37
2018-06-15T18:07:18.559Z,7.77
2018-06-15T18:09:47.899Z,7.30
2018-06-15T18:12:16.979Z,11.47
2018-06-15T18:14:46.115Z,7.63
2018-06-15T18:17:15.206Z,9.30
2018-06-15T18:19:44.280Z,6.13
2018-06-15T18:22:13.712Z,7.47
2018-06-15T18:24:42.785Z,6.73
2018-06-15T18:27:11.870Z,6.73
2018-06-15T18:29:40.920Z,6.60
2018-06-15T18:32:09.992Z,8.97
2018-06-15T18:34:39.098Z,16.00
2018-06-15T18:37:08.197Z,11.50
2018-06-15T18:39:37.379Z,18.10
2018-06-15T18:42:06.677Z,15.77
2018-06-15T18:44:35.931Z,9.60
2018-06-15T18:47:05.083Z,8.43
2018-06-15T18:49:34.275Z,8.70
2018-06-15T18:52:03.380Z,9.13
2018-06-15T18:54:32.600Z,9.00
2018-06-15T18:57:01.730Z,9.73
2018-06-15T18:59:30.876Z,6.73
2018-06-15T19:02:00.100Z,6.90
2018-06-15T19:04:29.317Z,6.70
2018-06-15T19:06:58.508Z,6.47
2018-06-15T19:09:28.024Z,7.50
2018-06-15T19:11:57.187Z,7.30
2018-06-15T19:14:26.367Z,8.67
2018-06-15T19:16:55.561Z,7.03
2018-06-15T19:19:24.849Z,8.27
2018-06-15T19:21:53.994Z,6.00
2018-06-15T19:24:23.754Z,6.43
2018-06-15T19:26:52.940Z,8.60
2018-06-15T19:29:21.810Z,7.70
2018-06-15T19:31:50.852Z,8.63
2018-06-15T19:34:19.974Z,6.67
2018-06-15T19:36:49.089Z,8.43
2018-06-15T19:39:19.343Z,7.90
2018-06-15T19:41:48.444Z,6.63
2018-06-15T19:44:17.568Z,6.20
2018-06-15T19:46:46.967Z,6.90
2018-06-15T19:49:16.148Z,6.33
2018-06-15T19:51:45.242Z,8.70
2018-06-15T19:54:14.320Z,6.60
2018-06-15T19:56:43.401Z,6.53
2018-06-15T19:59:12.623Z,6.93
2018-06-15T20:01:41.707Z,7.07
2018-06-15T20:04:10.980Z,7.30
2018-06-15T20:06:40.073Z,8.47
2018-06-15T20:09:09.398Z,6.80
2018-06-15T20:11:38.801Z,7.00
2018-06-15T20:14:08.009Z,7.70
2018-06-15T20:16:37.167Z,8.23
2018-06-15T20:19:06.310Z,8.13
2018-06-15T20:21:35.386Z,7.13
2018-06-15T20:24:04.958Z,6.87
2018-06-15T20:26:34.103Z,6.17
2018-06-15T20:29:03.348Z,6.43
2018-06-15T20:31:32.522Z,8.50
2018-06-15T20:34:01.648Z,6.90
2018-06-15T20:36:30.881Z,8.37
2018-06-15T20:38:59.996Z,7.00
2018-06-15T20:41:29.172Z,7.47
2018-06-15T20:43:58.511Z,7.10
2018-06-15T20:46:27.695Z,9.13
2018-06-15T20:48:56.794Z,8.07
2018-06-15T20:51:25.839Z,9.17
2018-06-15T20:53:54.919Z,8.20
2018-06-15T20:56:24.149Z,8.03
2018-06-15T20:58:53.367Z,8.03
2018-06-15T21:01:22.766Z,7.60
2018-06-15T21:03:52.021Z,8.40
2018-06-15T21:06:21.283Z,8.17
2018-06-15T21:08:50.369Z,7.30
2018-06-15T21:11:19.409Z,8.70
2018-06-15T21:13:48.512Z,8.70
2018-06-15T21:16:17.583Z,9.63
2018-06-15T21:18:46.647Z,9.87
2018-06-15T21:21:15.687Z,8.80
2018-06-15T21:23:45.098Z,9.20
2018-06-15T21:26:14.211Z,8.40
2018-06-15T21:28:43.286Z,9.07
2018-06-15T21:31:12.376Z,9.47
2018-06-15T21:33:41.475Z,8.03
2018-06-15T21:36:10.573Z,8.50
2018-06-15T21:38:39.696Z,8.53
2018-06-15T21:41:08.962Z,8.30
2018-06-15T21:43:38.005Z,8.23
2018-06-15T21:46:07.092Z,8.60
2018-06-15T21:48:36.144Z,14.77
2018-06-15T21:51:05.248Z,10.43
2018-06-15T21:53:34.315Z,21.80
2018-06-15T21:56:03.375Z,12.30
2018-06-15T21:58:32.462Z,16.30
2018-06-15T22:01:01.543Z,13.33
2018-06-15T22:03:30.795Z,8.53
2018-06-15T22:06:06.751Z,14.50
2018-06-15T22:08:35.824Z,15.53
2018-06-15T22:11:05.030Z,11.40
2018-06-15T22:13:34.088Z,10.73
2018-06-15T22:16:03.233Z,10.00
2018-06-15T22:18:32.355Z,10.93
2018-06-15T22:21:01.432Z,10.60
2018-06-15T22:23:30.527Z,17.00
2018-06-15T22:25:59.611Z,9.17
2018-06-15T22:28:28.745Z,10.87
2018-06-15T22:30:57.830Z,10.67
2018-06-15T22:33:27.001Z,13.43
2018-06-15T22:35:56.303Z,9.83
2018-06-15T22:38:25.466Z,13.90
2018-06-15T22:40:54.960Z,12.43
2018-06-15T22:43:23.906Z,10.30
2018-06-15T22:45:52.880Z,9.27
2018-06-15T22:48:21.964Z,11.30
2018-06-15T22:50:51.118Z,9.70
2018-06-15T22:53:20.168Z,9.83
2018-06-15T22:55:49.279Z,9.20
2018-06-15T22:58:18.359Z,9.40
2018-06-15T23:00:47.612Z,9.60
2018-06-15T23:03:16.801Z,12.23
2018-06-15T23:05:45.879Z,11.10
2018-06-15T23:08:14.960Z,9.87
2018-06-15T23:10:44.007Z,9.70
2018-06-15T23:13:13.086Z,11.13
2018-06-15T23:15:42.123Z,9.67
2018-06-15T23:18:11.184Z,9.90
2018-06-15T23:20:40.263Z,9.93
2018-06-15T23:23:09.508Z,10.33
2018-06-15T23:25:38.595Z,10.30
2018-06-15T23:28:07.719Z,8.80
2018-06-15T23:30:36.784Z,9.37
2018-06-15T23:33:05.840Z,9.97
2018-06-15T23:35:34.898Z,12.27
2018-06-15T23:38:04.043Z,9.27
2018-06-15T23:40:32.843Z,8.80
2018-06-15T23:43:01.608Z,9.40
2018-06-15T23:45:30.532Z,10.33
2018-06-15T23:47:59.595Z,10.57
2018-06-15T23:50:28.705Z,10.10
2018-06-15T23:52:57.764Z,10.33
2018-06-15T23:55:26.861Z,11.40
2018-06-15T23:57:55.943Z,10.90
